Terminal Aerodrome Forecast
Issued by NWS

Home | Current Version | Previous Version | Text Only | Print | Product List | Glossary On
Versions: 1 2 3 4 5 6 7 8 9 10 11 12 13 14 15 16 17 18 19 20
000
FTAK31 PANC 251140
TAFAVD
TAF
PAVD 251140Z 2512/2612 VRB04KT 6SM -RA SCT005 OVC015
      TEMPO 2512/2516 4SM -RA BR BKN005
     FM252300 VRB02KT 5SM -RA BR BKN020 OVC040
     FM260500 00000KT P6SM -SHRA SCT030 OVC050
      AMD LTD TO CLD VIS AND WIND=

USA.gov is the U.S. government's official web portal to all federal, state and local government web resources and services.